sensor_id;sensor_type;location;lat;lon;timestamp;pressure;altitude;pressure_sealevel;temperature;humidity
74834;BME280;63361;52.384;20.930;2023-04-15T00:00:36;99903.44;;;9.67;100.00
74834;BME280;63361;52.384;20.930;2023-04-15T00:03:01;99898.06;;;9.67;100.00
74834;BME280;63361;52.384;20.930;2023-04-15T00:05:29;99889.97;;;9.67;100.00
74834;BME280;63361;52.384;20.930;2023-04-15T00:07:55;99886.22;;;9.63;100.00
74834;BME280;63361;52.384;20.930;2023-04-15T00:10:20;99885.38;;;9.68;99.95
74834;BME280;63361;52.384;20.930;2023-04-15T00:12:45;99907.13;;;9.76;100.00
74834;BME280;63361;52.384;20.930;2023-04-15T00:15:11;99900.44;;;9.74;99.94
74834;BME280;63361;52.384;20.930;2023-04-15T00:17:36;99897.78;;;9.69;99.91
74834;BME280;63361;52.384;20.930;2023-04-15T00:20:04;99901.56;;;9.68;100.00
74834;BME280;63361;52.384;20.930;2023-04-15T00:22:30;99892.63;;;9.72;99.71
74834;BME280;63361;52.384;20.930;2023-04-15T00:24:56;99911.72;;;9.76;99.91
74834;BME280;63361;52.384;20.930;2023-04-15T00:27:22;99889.56;;;9.79;99.81
74834;BME280;63361;52.384;20.930;2023-04-15T00:29:47;99900.06;;;9.80;99.38
74834;BME280;63361;52.384;20.930;2023-04-15T00:32:12;99886.75;;;9.65;99.70
74834;BME280;63361;52.384;20.930;2023-04-15T00:34:38;99890.66;;;9.54;100.00
74834;BME280;63361;52.384;20.930;2023-04-15T00:37:03;99877.63;;;9.37;100.00
74834;BME280;63361;52.384;20.930;2023-04-15T00:39:29;99889.16;;;9.43;100.00
74834;BME280;63361;52.384;20.930;2023-04-15T00:41:55;99894.81;;;9.41;100.00
74834;BME280;63361;52.384;20.930;2023-04-15T00:44:21;99878.94;;;9.40;100.00
74834;BME280;63361;52.384;20.930;2023-04-15T00:46:47;99889.97;;;9.43;100.00
74834;BME280;63361;52.384;20.930;2023-04-15T00:49:14;99887.28;;;9.14;100.00
74834;BME280;63361;52.384;20.930;2023-04-15T00:51:40;99889.88;;;8.91;100.00
74834;BME280;63361;52.384;20.930;2023-04-15T00:54:05;99886.22;;;8.76;100.00
74834;BME280;63361;52.384;20.930;2023-04-15T00:56:36;99888.19;;;8.66;100.00
74834;BME280;63361;52.384;20.930;2023-04-15T00:59:02;99901.31;;;8.72;100.00
74834;BME280;63361;52.384;20.930;2023-04-15T01:01:28;99899.69;;;8.71;100.00
74834;BME280;63361;52.384;20.930;2023-04-15T01:03:55;99890.81;;;8.71;100.00
74834;BME280;63361;52.384;20.930;2023-04-15T01:06:22;99884.63;;;8.75;100.00
74834;BME280;63361;52.384;20.930;2023-04-15T01:08:47;99897.59;;;8.68;100.00
74834;BME280;63361;52.384;20.930;2023-04-15T01:11:12;99893.84;;;8.64;100.00
74834;BME280;63361;52.384;20.930;2023-04-15T01:13:39;99888.53;;;8.54;100.00
74834;BME280;63361;52.384;20.930;2023-04-15T01:16:06;99880.50;;;8.49;100.00
74834;BME280;63361;52.384;20.930;2023-04-15T01:18:32;99880.50;;;8.49;100.00
74834;BME280;63361;52.384;20.930;2023-04-15T01:21:00;99891.31;;;8.39;100.00
74834;BME280;63361;52.384;20.930;2023-04-15T01:23:26;99889.19;;;8.36;100.00
74834;BME280;63361;52.384;20.930;2023-04-15T01:25:52;99895.91;;;8.38;100.00
74834;BME280;63361;52.384;20.930;2023-04-15T01:28:18;99892.69;;;8.36;100.00
74834;BME280;63361;52.384;20.930;2023-04-15T01:30:43;99889.41;;;8.44;100.00
74834;BME280;63361;52.384;20.930;2023-04-15T01:33:08;99894.75;;;8.50;100.00
74834;BME280;63361;52.384;20.930;2023-04-15T01:35:34;99902.31;;;8.42;100.00
74834;BME280;63361;52.384;20.930;2023-04-15T01:38:04;99884.56;;;8.41;100.00
74834;BME280;63361;52.384;20.930;2023-04-15T01:40:30;99885.94;;;8.39;100.00
74834;BME280;63361;52.384;20.930;2023-04-15T01:42:56;99895.91;;;8.33;100.00
74834;BME280;63361;52.384;20.930;2023-04-15T01:45:21;99888.13;;;8.32;100.00
74834;BME280;63361;52.384;20.930;2023-04-15T01:47:47;99890.53;;;8.38;100.00
74834;BME280;63361;52.384;20.930;2023-04-15T01:50:13;99884.59;;;8.31;100.00
74834;BME280;63361;52.384;20.930;2023-04-15T01:52:39;99876.81;;;8.30;100.00
74834;BME280;63361;52.384;20.930;2023-04-15T01:55:05;99884.88;;;8.30;100.00
74834;BME280;63361;52.384;20.930;2023-04-15T01:57:32;99892.47;;;8.18;100.00
74834;BME280;63361;52.384;20.930;2023-04-15T01:59:57;99888.69;;;8.24;100.00
74834;BME280;63361;52.384;20.930;2023-04-15T02:02:22;99886.78;;;8.34;100.00
74834;BME280;63361;52.384;20.930;2023-04-15T02:04:48;99885.41;;;8.27;100.00
74834;BME280;63361;52.384;20.930;2023-04-15T02:07:13;99885.75;;;8.15;100.00
74834;BME280;63361;52.384;20.930;2023-04-15T02:09:38;99882.22;;;8.25;100.00
74834;BME280;63361;52.384;20.930;2023-04-15T02:12:04;99878.75;;;8.24;100.00
74834;BME280;63361;52.384;20.930;2023-04-15T02:14:29;99884.88;;;8.30;100.00
74834;BME280;63361;52.384;20.930;2023-04-15T02:16:55;99880.03;;;8.27;100.00
74834;BME280;63361;52.384;20.930;2023-04-15T02:19:21;99875.19;;;8.29;100.00
74834;BME280;63361;52.384;20.930;2023-04-15T02:21:46;99899.41;;;8.39;100.00
74834;BME280;63361;52.384;20.930;2023-04-15T02:24:11;99891.06;;;8.30;100.00
74834;BME280;63361;52.384;20.930;2023-04-15T02:26:37;99890.25;;;8.30;100.00
74834;BME280;63361;52.384;20.930;2023-04-15T02:29:02;99881.97;;;8.21;100.00
74834;BME280;63361;52.384;20.930;2023-04-15T02:31:28;99886.28;;;8.17;100.00
74834;BME280;63361;52.384;20.930;2023-04-15T02:33:53;99890.53;;;8.28;100.00
74834;BME280;63361;52.384;20.930;2023-04-15T02:36:18;99884.69;;;8.16;100.00
74834;BME280;63361;52.384;20.930;2023-04-15T02:38:45;99888.69;;;8.19;100.00
74834;BME280;63361;52.384;20.930;2023-04-15T02:41:10;99880.69;;;8.08;100.00
74834;BME280;63361;52.384;20.930;2023-04-15T02:43:36;99898.13;;;8.11;100.00
74834;BME280;63361;52.384;20.930;2023-04-15T02:46:04;99868.91;;;7.99;100.00
74834;BME280;63361;52.384;20.930;2023-04-15T02:48:29;99879.09;;;8.07;100.00
74834;BME280;63361;52.384;20.930;2023-04-15T02:51:13;99885.28;;;8.03;100.00
74834;BME280;63361;52.384;20.930;2023-04-15T02:53:38;99876.16;;;7.99;100.00
74834;BME280;63361;52.384;20.930;2023-04-15T02:56:04;99888.25;;;8.01;100.00
74834;BME280;63361;52.384;20.930;2023-04-15T02:58:30;99890.88;;;8.11;100.00
74834;BME280;63361;52.384;20.930;2023-04-15T03:00:56;99879.38;;;8.01;100.00
74834;BME280;63361;52.384;20.930;2023-04-15T03:03:21;99890.31;;;8.15;100.00
74834;BME280;63361;52.384;20.930;2023-04-15T03:05:47;99880.44;;;8.05;100.00
74834;BME280;63361;52.384;20.930;2023-04-15T03:08:12;99878.00;;;8.08;100.00
74834;BME280;63361;52.384;20.930;2023-04-15T03:10:39;99885.00;;;8.09;100.00
74834;BME280;63361;52.384;20.930;2023-04-15T03:13:04;99878.28;;;8.07;100.00
74834;BME280;63361;52.384;20.930;2023-04-15T03:15:29;99881.47;;;8.14;100.00
74834;BME280;63361;52.384;20.930;2023-04-15T03:17:54;99887.09;;;8.12;100.00
74834;BME280;63361;52.384;20.930;2023-04-15T03:20:20;99885.75;;;8.20;100.00
74834;BME280;63361;52.384;20.930;2023-04-15T03:22:45;99883.34;;;8.13;100.00
74834;BME280;63361;52.384;20.930;2023-04-15T03:25:11;99883.63;;;8.12;100.00
74834;BME280;63361;52.384;20.930;2023-04-15T03:27:37;99888.97;;;8.22;100.00
74834;BME280;63361;52.384;20.930;2023-04-15T03:30:02;99885.75;;;8.15;100.00
74834;BME280;63361;52.384;20.930;2023-04-15T03:32:28;99892.47;;;8.18;100.00
74834;BME280;63361;52.384;20.930;2023-04-15T03:34:53;99886.50;;;8.26;100.00
74834;BME280;63361;52.384;20.930;2023-04-15T03:37:18;99889.78;;;8.23;100.00
74834;BME280;63361;52.384;20.930;2023-04-15T03:39:44;99890.53;;;8.28;100.00
74834;BME280;63361;52.384;20.930;2023-04-15T03:42:09;99891.41;;;8.13;100.00
74834;BME280;63361;52.384;20.930;2023-04-15T03:44:35;99891.66;;;8.22;100.00
74834;BME280;63361;52.384;20.930;2023-04-15T03:47:00;99888.13;;;8.27;100.00
74834;BME280;63361;52.384;20.930;2023-04-15T03:49:25;99880.09;;;8.22;100.00
74834;BME280;63361;52.384;20.930;2023-04-15T03:51:51;99898.88;;;8.27;100.00
74834;BME280;63361;52.384;20.930;2023-04-15T03:54:16;99890.53;;;8.38;100.00
74834;BME280;63361;52.384;20.930;2023-04-15T03:56:41;99883.00;;;8.35;100.00
74834;BME280;63361;52.384;20.930;2023-04-15T03:59:07;99906.13;;;8.36;100.00
74834;BME280;63361;52.384;20.930;2023-04-15T04:01:32;99891.06;;;8.25;100.00
74834;BME280;63361;52.384;20.930;2023-04-15T04:03:57;99887.84;;;8.28;100.00
74834;BME280;63361;52.384;20.930;2023-04-15T04:06:23;99897.53;;;8.34;100.00
74834;BME280;63361;52.384;20.930;2023-04-15T04:08:48;99901.28;;;8.38;100.00
74834;BME280;63361;52.384;20.930;2023-04-15T04:11:13;99889.13;;;8.46;100.00
74834;BME280;63361;52.384;20.930;2023-04-15T04:13:39;99898.00;;;8.41;100.00
74834;BME280;63361;52.384;20.930;2023-04-15T04:16:04;99888.66;;;8.34;100.00
74834;BME280;63361;52.384;20.930;2023-04-15T04:18:31;99880.59;;;8.34;100.00
74834;BME280;63361;52.384;20.930;2023-04-15T04:20:56;99894.22;;;8.48;100.00
74834;BME280;63361;52.384;20.930;2023-04-15T04:23:22;99890.81;;;8.32;100.00
74834;BME280;63361;52.384;20.930;2023-04-15T04:25:47;99888.63;;;8.39;100.00
74834;BME280;63361;52.384;20.930;2023-04-15T04:28:12;99884.59;;;8.31;100.00
74834;BME280;63361;52.384;20.930;2023-04-15T04:30:38;99896.13;;;8.42;100.00
74834;BME280;63361;52.384;20.930;2023-04-15T04:33:03;99888.94;;;8.32;100.00
74834;BME280;63361;52.384;20.930;2023-04-15T04:35:29;99890.81;;;8.32;100.00
74834;BME280;63361;52.384;20.930;2023-04-15T04:37:54;99888.38;;;8.35;100.00
74834;BME280;63361;52.384;20.930;2023-04-15T04:40:20;99906.94;;;8.37;100.00
74834;BME280;63361;52.384;20.930;2023-04-15T04:42:45;99899.41;;;8.29;100.00
74834;BME280;63361;52.384;20.930;2023-04-15T04:45:10;99897.81;;;8.33;100.00
74834;BME280;63361;52.384;20.930;2023-04-15T04:47:36;99901.28;;;8.33;100.00
74834;BME280;63361;52.384;20.930;2023-04-15T04:50:01;99908.00;;;8.31;100.00
74834;BME280;63361;52.384;20.930;2023-04-15T04:52:27;99895.63;;;8.40;100.00
74834;BME280;63361;52.384;20.930;2023-04-15T04:54:52;99902.88;;;8.39;100.00
74834;BME280;63361;52.384;20.930;2023-04-15T04:57:18;99895.91;;;8.33;100.00
74834;BME280;63361;52.384;20.930;2023-04-15T04:59:43;99914.47;;;8.35;100.00
74834;BME280;63361;52.384;20.930;2023-04-15T05:02:08;99898.88;;;8.27;100.00
74834;BME280;63361;52.384;20.930;2023-04-15T05:04:34;99899.94;;;8.36;100.00
74834;BME280;63361;52.384;20.930;2023-04-15T05:07:01;99906.38;;;8.40;100.00
74834;BME280;63361;52.384;20.930;2023-04-15T05:09:26;99888.91;;;8.27;100.00
74834;BME280;63361;52.384;20.930;2023-04-15T05:11:52;99898.63;;;8.23;100.00
74834;BME280;63361;52.384;20.930;2023-04-15T05:14:17;99904.50;;;8.25;100.00
74834;BME280;63361;52.384;20.930;2023-04-15T05:16:42;99901.28;;;8.38;100.00
74834;BME280;63361;52.384;20.930;2023-04-15T05:19:08;99914.47;;;8.35;100.00
74834;BME280;63361;52.384;20.930;2023-04-15T05:21:33;99918.78;;;8.36;100.00
74834;BME280;63361;52.384;20.930;2023-04-15T05:23:58;99902.69;;;8.21;100.00
74834;BME280;63361;52.384;20.930;2023-04-15T05:26:24;99905.03;;;8.37;100.00
74834;BME280;63361;52.384;20.930;2023-04-15T05:28:49;99909.88;;;8.30;100.00
74834;BME280;63361;52.384;20.930;2023-04-15T05:31:15;99884.16;;;8.14;100.00
74834;BME280;63361;52.384;20.930;2023-04-15T05:33:40;99897.56;;;8.24;100.00
74834;BME280;63361;52.384;20.930;2023-04-15T05:36:06;99905.28;;;8.41;100.00
74834;BME280;63361;52.384;20.930;2023-04-15T05:38:31;99890.31;;;8.20;100.00
74834;BME280;63361;52.384;20.930;2023-04-15T05:40:57;99897.25;;;8.26;100.00
74834;BME280;63361;52.384;20.930;2023-04-15T05:43:22;99895.16;;;8.23;100.00
74834;BME280;63361;52.384;20.930;2023-04-15T05:45:47;99915.25;;;8.30;100.00
74834;BME280;63361;52.384;20.930;2023-04-15T05:48:13;99895.91;;;8.28;100.00
74834;BME280;63361;52.384;20.930;2023-04-15T05:50:41;99895.38;;;8.26;100.00
74834;BME280;63361;52.384;20.930;2023-04-15T05:53:07;99877.16;;;8.18;100.00
74834;BME280;63361;52.384;20.930;2023-04-15T05:55:33;99903.72;;;8.35;100.00
74834;BME280;63361;52.384;20.930;2023-04-15T05:57:58;99919.22;;;8.53;100.00
74834;BME280;63361;52.384;20.930;2023-04-15T06:00:24;99921.06;;;8.58;100.00
74834;BME280;63361;52.384;20.930;2023-04-15T06:02:50;99924.53;;;8.58;100.00
74834;BME280;63361;52.384;20.930;2023-04-15T06:05:15;99911.50;;;8.36;100.00
74834;BME280;63361;52.384;20.930;2023-04-15T06:07:40;99919.22;;;8.48;100.00
74834;BME280;63361;52.384;20.930;2023-04-15T06:10:08;99924.81;;;8.57;100.00
74834;BME280;63361;52.384;20.930;2023-04-15T06:12:33;99922.44;;;8.50;100.00
74834;BME280;63361;52.384;20.930;2023-04-15T06:14:59;99918.50;;;8.37;100.00
74834;BME280;63361;52.384;20.930;2023-04-15T06:17:24;99916.03;;;8.41;100.00
74834;BME280;63361;52.384;20.930;2023-04-15T06:19:49;99917.41;;;8.38;100.00
74834;BME280;63361;52.384;20.930;2023-04-15T06:22:22;99919.56;;;8.26;100.00
74834;BME280;63361;52.384;20.930;2023-04-15T06:24:48;99917.16;;;8.35;100.00
74834;BME280;63361;52.384;20.930;2023-04-15T06:27:17;99927.38;;;8.28;100.00
74834;BME280;63361;52.384;20.930;2023-04-15T06:29:43;99921.47;;;8.36;100.00
74834;BME280;63361;52.384;20.930;2023-04-15T06:32:09;99927.09;;;8.39;100.00
74834;BME280;63361;52.384;20.930;2023-04-15T06:34:35;99934.66;;;8.32;100.00
74834;BME280;63361;52.384;20.930;2023-04-15T06:37:01;99927.41;;;8.23;100.00
74834;BME280;63361;52.384;20.930;2023-04-15T06:39:26;99902.69;;;8.16;100.00
74834;BME280;63361;52.384;20.930;2023-04-15T06:41:52;99930.84;;;8.28;100.00
74834;BME280;63361;52.384;20.930;2023-04-15T06:44:17;99936.25;;;8.28;100.00
74834;BME280;63361;52.384;20.930;2023-04-15T06:46:43;99946.75;;;8.35;100.00
74834;BME280;63361;52.384;20.930;2023-04-15T06:49:09;99942.69;;;8.27;100.00
74834;BME280;63361;52.384;20.930;2023-04-15T06:51:34;99949.69;;;8.38;100.00
74834;BME280;63361;52.384;20.930;2023-04-15T06:54:00;99951.84;;;8.36;100.00
74834;BME280;63361;52.384;20.930;2023-04-15T06:56:26;99943.53;;;8.23;100.00
74834;BME280;63361;52.384;20.930;2023-04-15T06:58:52;99949.72;;;8.23;100.00
74834;BME280;63361;52.384;20.930;2023-04-15T07:01:17;99959.91;;;8.36;100.00
74834;BME280;63361;52.384;20.930;2023-04-15T07:03:42;99950.78;;;8.32;100.00
74834;BME280;63361;52.384;20.930;2023-04-15T07:06:08;99967.44;;;8.39;100.00
74834;BME280;63361;52.384;20.930;2023-04-15T07:08:34;99957.19;;;8.31;100.00
74834;BME280;63361;52.384;20.930;2023-04-15T07:10:59;99974.72;;;8.34;100.00
74834;BME280;63361;52.384;20.930;2023-04-15T07:13:25;99962.56;;;8.31;100.00
74834;BME280;63361;52.384;20.930;2023-04-15T07:15:51;99965.53;;;8.30;100.00
74834;BME280;63361;52.384;20.930;2023-04-15T07:18:16;99957.47;;;8.40;100.00
74834;BME280;63361;52.384;20.930;2023-04-15T07:20:41;99961.25;;;8.34;100.00
74834;BME280;63361;52.384;20.930;2023-04-15T07:23:07;99965.25;;;8.41;100.00
74834;BME280;63361;52.384;20.930;2023-04-15T07:25:33;99972.50;;;8.41;100.00
74834;BME280;63361;52.384;20.930;2023-04-15T07:27:58;99938.94;;;8.33;100.00
74834;BME280;63361;52.384;20.930;2023-04-15T07:30:23;99966.03;;;8.47;100.00
74834;BME280;63361;52.384;20.930;2023-04-15T07:32:49;99970.13;;;8.39;100.00
74834;BME280;63361;52.384;20.930;2023-04-15T07:35:14;99963.63;;;8.40;100.00
74834;BME280;63361;52.384;20.930;2023-04-15T07:37:39;99960.94;;;8.40;100.00
74834;BME280;63361;52.384;20.930;2023-04-15T07:40:07;99970.94;;;8.40;100.00
74834;BME280;63361;52.384;20.930;2023-04-15T07:42:33;99961.25;;;8.34;100.00
74834;BME280;63361;52.384;20.930;2023-04-15T07:44:59;99958.03;;;8.37;100.00
74834;BME280;63361;52.384;20.930;2023-04-15T07:47:24;99954.00;;;8.39;100.00
74834;BME280;63361;52.384;20.930;2023-04-15T07:49:51;99975.91;;;8.67;100.00
74834;BME280;63361;52.384;20.930;2023-04-15T07:52:17;99938.03;;;8.53;100.00
74834;BME280;63361;52.384;20.930;2023-04-15T07:54:42;99965.09;;;8.72;100.00
74834;BME280;63361;52.384;20.930;2023-04-15T07:57:07;99956.53;;;8.65;100.00
74834;BME280;63361;52.384;20.930;2023-04-15T07:59:33;99961.41;;;8.58;100.00
74834;BME280;63361;52.384;20.930;2023-04-15T08:01:58;99972.34;;;8.76;100.00
74834;BME280;63361;52.384;20.930;2023-04-15T08:04:24;99950.53;;;8.78;100.00
74834;BME280;63361;52.384;20.930;2023-04-15T08:06:49;99961.50;;;8.87;100.00
74834;BME280;63361;52.384;20.930;2023-04-15T08:09:15;99946.25;;;8.72;100.00
74834;BME280;63361;52.384;20.930;2023-04-15T08:11:40;99961.81;;;8.80;100.00
74834;BME280;63361;52.384;20.930;2023-04-15T08:14:06;99941.19;;;8.70;100.00
74834;BME280;63361;52.384;20.930;2023-04-15T08:16:32;99933.94;;;8.61;100.00
74834;BME280;63361;52.384;20.930;2023-04-15T08:18:57;99957.50;;;8.84;100.00
74834;BME280;63361;52.384;20.930;2023-04-15T08:21:23;99966.59;;;8.88;100.00
74834;BME280;63361;52.384;20.930;2023-04-15T08:23:50;99961.31;;;8.73;100.00
74834;BME280;63361;52.384;20.930;2023-04-15T08:26:16;99962.72;;;8.65;100.00
74834;BME280;63361;52.384;20.930;2023-04-15T08:28:43;99941.75;;;8.57;100.00
74834;BME280;63361;52.384;20.930;2023-04-15T08:31:09;99966.41;;;8.74;100.00
74834;BME280;63361;52.384;20.930;2023-04-15T08:33:34;99959.22;;;8.65;100.00
74834;BME280;63361;52.384;20.930;2023-04-15T08:35:59;99929.69;;;8.55;100.00
74834;BME280;63361;52.384;20.930;2023-04-15T08:38:25;99966.41;;;8.79;100.00
74834;BME280;63361;52.384;20.930;2023-04-15T08:40:50;99969.19;;;9.03;100.00
74834;BME280;63361;52.384;20.930;2023-04-15T08:43:26;99940.47;;;8.94;100.00
74834;BME280;63361;52.384;20.930;2023-04-15T08:45:54;99971.84;;;9.08;100.00
74834;BME280;63361;52.384;20.930;2023-04-15T08:48:20;99962.66;;;9.14;100.00
74834;BME280;63361;52.384;20.930;2023-04-15T08:50:49;99960.72;;;9.20;100.00
74834;BME280;63361;52.384;20.930;2023-04-15T08:53:15;99969.31;;;9.22;100.00
74834;BME280;63361;52.384;20.930;2023-04-15T08:55:45;99968.78;;;9.25;100.00
74834;BME280;63361;52.384;20.930;2023-04-15T08:58:13;99972.72;;;9.33;100.00
74834;BME280;63361;52.384;20.930;2023-04-15T09:00:41;99965.66;;;9.08;100.00
74834;BME280;63361;52.384;20.930;2023-04-15T09:03:07;99940.19;;;8.95;100.00
74834;BME280;63361;52.384;20.930;2023-04-15T09:05:34;99972.63;;;9.14;100.00
74834;BME280;63361;52.384;20.930;2023-04-15T09:08:01;99960.53;;;9.11;100.00
74834;BME280;63361;52.384;20.930;2023-04-15T09:10:27;99982.47;;;9.29;100.00
74834;BME280;63361;52.384;20.930;2023-04-15T09:12:53;99968.59;;;9.16;100.00
74834;BME280;63361;52.384;20.930;2023-04-15T09:15:19;99942.78;;;9.05;100.00
74834;BME280;63361;52.384;20.930;2023-04-15T09:17:45;99979.22;;;9.32;100.00
74834;BME280;63361;52.384;20.930;2023-04-15T09:20:14;99972.94;;;9.41;100.00
74834;BME280;63361;52.384;20.930;2023-04-15T09:22:41;99982.81;;;9.80;100.00
74834;BME280;63361;52.384;20.930;2023-04-15T09:27:54;99976.88;;;9.83;100.00
74834;BME280;63361;52.384;20.930;2023-04-15T09:30:21;99970.22;;;9.75;100.00
74834;BME280;63361;52.384;20.930;2023-04-15T09:35:14;99983.97;;;9.74;100.00
74834;BME280;63361;52.384;20.930;2023-04-15T09:37:39;99956.50;;;9.43;100.00
74834;BME280;63361;52.384;20.930;2023-04-15T09:40:05;99973.28;;;9.64;100.00
74834;BME280;63361;52.384;20.930;2023-04-15T09:42:30;99986.81;;;9.59;100.00
74834;BME280;63361;52.384;20.930;2023-04-15T09:45:10;99974.88;;;9.36;100.00
74834;BME280;63361;52.384;20.930;2023-04-15T09:47:36;99939.81;;;9.07;100.00
74834;BME280;63361;52.384;20.930;2023-04-15T09:50:01;99947.94;;;9.02;100.00
74834;BME280;63361;52.384;20.930;2023-04-15T09:52:28;99993.44;;;9.37;100.00
74834;BME280;63361;52.384;20.930;2023-04-15T09:54:54;99993.72;;;9.36;100.00
74834;BME280;63361;52.384;20.930;2023-04-15T09:57:23;99984.13;;;9.25;100.00
74834;BME280;63361;52.384;20.930;2023-04-15T09:59:49;99983.28;;;9.29;100.00
74834;BME280;63361;52.384;20.930;2023-04-15T10:02:15;99987.13;;;9.52;100.00
74834;BME280;63361;52.384;20.930;2023-04-15T10:04:43;99994.25;;;9.67;100.00
74834;BME280;63361;52.384;20.930;2023-04-15T10:07:10;100005.16;;;9.85;100.00
74834;BME280;63361;52.384;20.930;2023-04-15T10:09:37;99981.69;;;9.57;100.00
74834;BME280;63361;52.384;20.930;2023-04-15T10:12:04;99995.56;;;9.74;100.00
74834;BME280;63361;52.384;20.930;2023-04-15T10:14:34;99993.28;;;9.58;100.00
74834;BME280;63361;52.384;20.930;2023-04-15T10:17:03;100001.75;;;9.75;100.00
74834;BME280;63361;52.384;20.930;2023-04-15T10:19:33;100004.66;;;9.78;100.00
74834;BME280;63361;52.384;20.930;2023-04-15T10:22:00;99979.50;;;9.88;100.00
74834;BME280;63361;52.384;20.930;2023-04-15T10:24:27;99969.41;;;9.75;100.00
74834;BME280;63361;52.384;20.930;2023-04-15T10:26:53;99958.00;;;9.83;100.00
74834;BME280;63361;52.384;20.930;2023-04-15T10:29:19;99974.84;;;9.70;100.00
74834;BME280;63361;52.384;20.930;2023-04-15T10:31:45;99982.94;;;9.94;100.00
74834;BME280;63361;52.384;20.930;2023-04-15T10:34:11;100000.34;;;10.06;100.00
74834;BME280;63361;52.384;20.930;2023-04-15T10:36:37;99991.22;;;10.02;100.00
74834;BME280;63361;52.384;20.930;2023-04-15T10:44:44;99994.69;;;10.08;100.00
74834;BME280;63361;52.384;20.930;2023-04-15T10:47:18;99995.63;;;10.22;100.00
74834;BME280;63361;52.384;20.930;2023-04-15T10:49:58;100006.31;;;10.03;100.00
74834;BME280;63361;52.384;20.930;2023-04-15T10:52:26;100001.75;;;9.75;100.00
74834;BME280;63361;52.384;20.930;2023-04-15T10:55:12;99998.91;;;9.90;100.00
74834;BME280;63361;52.384;20.930;2023-04-15T10:57:39;99998.47;;;10.07;100.00
74834;BME280;63361;52.384;20.930;2023-04-15T11:00:13;99996.72;;;10.21;100.00
74834;BME280;63361;52.384;20.930;2023-04-15T11:05:17;99979.75;;;10.39;100.00
74834;BME280;63361;52.384;20.930;2023-04-15T11:12:47;100006.81;;;10.34;100.00
74834;BME280;63361;52.384;20.930;2023-04-15T11:15:40;100002.28;;;10.30;100.00
74834;BME280;63361;52.384;20.930;2023-04-15T11:20:35;99995.47;;;10.37;100.00
74834;BME280;63361;52.384;20.930;2023-04-15T11:23:01;99983.25;;;10.16;100.00
74834;BME280;63361;52.384;20.930;2023-04-15T11:25:28;100011.66;;;10.37;100.00
74834;BME280;63361;52.384;20.930;2023-04-15T11:27:54;99989.97;;;10.42;100.00
74834;BME280;63361;52.384;20.930;2023-04-15T11:32:47;99989.69;;;10.44;100.00
74834;BME280;63361;52.384;20.930;2023-04-15T11:35:12;99991.88;;;10.18;100.00
74834;BME280;63361;52.384;20.930;2023-04-15T11:37:37;100001.31;;;10.15;100.00
74834;BME280;63361;52.384;20.930;2023-04-15T11:40:03;99995.84;;;10.26;100.00
74834;BME280;63361;52.384;20.930;2023-04-15T11:42:30;100011.66;;;10.37;100.00
74834;BME280;63361;52.384;20.930;2023-04-15T11:45:12;100016.44;;;10.64;100.00
74834;BME280;63361;52.384;20.930;2023-04-15T11:47:38;100003.13;;;10.25;100.00
74834;BME280;63361;52.384;20.930;2023-04-15T11:50:21;100003.25;;;10.39;100.00
74834;BME280;63361;52.384;20.930;2023-04-15T11:55:22;99998.78;;;10.29;100.00
74834;BME280;63361;52.384;20.930;2023-04-15T11:57:50;100008.81;;;10.47;100.00
74834;BME280;63361;52.384;20.930;2023-04-15T12:00:15;99995.25;;;10.71;100.00
74834;BME280;63361;52.384;20.930;2023-04-15T12:02:42;99982.97;;;10.84;100.00
74834;BME280;63361;52.384;20.930;2023-04-15T12:05:08;99992.75;;;10.56;100.00
74834;BME280;63361;52.384;20.930;2023-04-15T12:07:57;100003.97;;;10.87;100.00
74834;BME280;63361;52.384;20.930;2023-04-15T12:10:25;100010.03;;;10.98;100.00
74834;BME280;63361;52.384;20.930;2023-04-15T12:12:51;100009.34;;;10.87;100.00
74834;BME280;63361;52.384;20.930;2023-04-15T12:15:20;100003.97;;;10.87;100.00
74834;BME280;63361;52.384;20.930;2023-04-15T12:17:46;100009.22;;;11.16;100.00
74834;BME280;63361;52.384;20.930;2023-04-15T12:20:11;100007.47;;;10.87;100.00
74834;BME280;63361;52.384;20.930;2023-04-15T12:22:37;100014.16;;;10.52;100.00
74834;BME280;63361;52.384;20.930;2023-04-15T12:25:02;100010.38;;;10.53;100.00
74834;BME280;63361;52.384;20.930;2023-04-15T12:27:30;100020.06;;;10.31;100.00
74834;BME280;63361;52.384;20.930;2023-04-15T12:30:06;100030.06;;;10.30;100.00
74834;BME280;63361;52.384;20.930;2023-04-15T12:32:34;100024.94;;;10.00;100.00
74834;BME280;63361;52.384;20.930;2023-04-15T12:34:59;100029.94;;;9.87;100.00
74834;BME280;63361;52.384;20.930;2023-04-15T12:37:25;100028.25;;;9.63;100.00
74834;BME280;63361;52.384;20.930;2023-04-15T12:39:51;100031.19;;;9.66;100.00
74834;BME280;63361;52.384;20.930;2023-04-15T12:42:18;100045.22;;;9.63;100.00
74834;BME280;63361;52.384;20.930;2023-04-15T12:44:43;100044.47;;;9.58;100.00
74834;BME280;63361;52.384;20.930;2023-04-15T12:47:09;100057.44;;;9.56;100.00
74834;BME280;63361;52.384;20.930;2023-04-15T12:49:35;100049.91;;;9.52;100.00
74834;BME280;63361;52.384;20.930;2023-04-15T12:52:02;100062.25;;;9.59;100.00
74834;BME280;63361;52.384;20.930;2023-04-15T12:54:28;100057.44;;;9.50;100.00
74834;BME280;63361;52.384;20.930;2023-04-15T12:56:54;100058.53;;;9.49;100.00
74834;BME280;63361;52.384;20.930;2023-04-15T12:59:20;100053.13;;;9.55;100.00
74834;BME280;63361;52.384;20.930;2023-04-15T13:01:46;100060.41;;;9.54;100.00
74834;BME280;63361;52.384;20.930;2023-04-15T13:04:12;100073.16;;;9.38;100.00
74834;BME280;63361;52.384;20.930;2023-04-15T13:06:38;100066.72;;;9.34;100.00
74834;BME280;63361;52.384;20.930;2023-04-15T13:09:03;100073.88;;;9.54;100.00